Aviation Digital Data Service (ADDS)

Output produced by METARs form (0653 UTC 19 February 2019)
found at http://www.aviationweather.gov/metar/data/
 
METAR text: PTPN 190451Z 07018KT 4SM -SHRA BKN016CB OVC120 26/25 A2966 RMK CB ALQDS MOV SW LAST
Conditions at: PTPN (POHNPEI AIRPORT , FM) observed 0451 UTC 19 February 2019
Temperature: 26.0°C (79°F)
Dewpoint: 25.0°C (77°F) [RH = 94%]
Pressure (altimeter): 29.66 inches Hg (1004.5 mb)
Winds: from the ENE (70 degrees) at 21 MPH (18 knots; 9.3 m/s)
Visibility: 4 miles ( 6 km)
Ceiling: 1600 feet AGL
Clouds: broken clouds at 1600 feet AGL
overcast cloud deck at 12000 feet AGL
Weather: -SHRA  (light rain showers)

METAR text: PTPN 190430Z 04016KT 4SM -SHRA BKN016CB OVC120 26/25 A2966 RMK CB ALQDS MOV SW
Conditions at: PTPN (POHNPEI AIRPORT , FM) observed 0430 UTC 19 February 2019
Temperature: 26.0°C (79°F)
Dewpoint: 25.0°C (77°F) [RH = 94%]
Pressure (altimeter): 29.66 inches Hg (1004.5 mb)
Winds: from the NE (40 degrees) at 18 MPH (16 knots; 8.2 m/s)
Visibility: 4 miles ( 6 km)
Ceiling: 1600 feet AGL
Clouds: broken clouds at 1600 feet AGL
overcast cloud deck at 12000 feet AGL
Weather: -SHRA  (light rain showers)

METAR text: PTPN 190418Z 07016KT 3SM SHRA BKN015CB OVC110 26/25 A2968 RMK CB ALQDS MOV SW
Conditions at: PTPN (POHNPEI AIRPORT , FM) observed 0418 UTC 19 February 2019
Temperature: 26.0°C (79°F)
Dewpoint: 25.0°C (77°F) [RH = 94%]
Pressure (altimeter): 29.68 inches Hg (1005.2 mb)
Winds: from the ENE (70 degrees) at 18 MPH (16 knots; 8.2 m/s)
Visibility: 3 miles ( 5 km)
Ceiling: 1500 feet AGL
Clouds: broken clouds at 1500 feet AGL
overcast cloud deck at 11000 feet AGL
Weather: SHRA  (rain showers)

METAR text: PTPN 190400Z 07015G25KT 1/2SM +SHRA VV005 26/25 A2968
Conditions at: PTPN (POHNPEI AIRPORT , FM) observed 0400 UTC 19 February 2019
Temperature: 26.0°C (79°F)
Dewpoint: 25.0°C (77°F) [RH = 94%]
Pressure (altimeter): 29.68 inches Hg (1005.2 mb)
Winds: from the ENE (70 degrees) at 17 MPH (15 knots; 7.7 m/s)
gusting to 29 MPH (25 knots; 12.9 m/s)
Visibility: 0.50 miles (0.80 km)
Ceiling: indefinite ceiling with vertical visibility of 500 feet AGL
Clouds: obscured sky
Weather: +SHRA  (heavy rain showers)

METAR text: PTPN 190350Z 07020KT 4SM SHRA BKN015CB OVC120 26/25 A2967 RMK CB ALQDS MOV SW
Conditions at: PTPN (POHNPEI AIRPORT , FM) observed 0350 UTC 19 February 2019
Temperature: 26.0°C (79°F)
Dewpoint: 25.0°C (77°F) [RH = 94%]
Pressure (altimeter): 29.67 inches Hg (1004.8 mb)
Winds: from the ENE (70 degrees) at 23 MPH (20 knots; 10.3 m/s)
Visibility: 4 miles ( 6 km)
Ceiling: 1500 feet AGL
Clouds: broken clouds at 1500 feet AGL
overcast cloud deck at 12000 feet AGL
Weather: SHRA  (rain showers)

METAR text: PTPN 190250Z 04020KT 4SM SHRA BKN015CB OVC120 26/25 A2971 RMK CB ALQDS MOV SW
Conditions at: PTPN (POHNPEI AIRPORT , FM) observed 0250 UTC 19 February 2019
Temperature: 26.0°C (79°F)
Dewpoint: 25.0°C (77°F) [RH = 94%]
Pressure (altimeter): 29.71 inches Hg (1006.2 mb)
Winds: from the NE (40 degrees) at 23 MPH (20 knots; 10.3 m/s)
Visibility: 4 miles ( 6 km)
Ceiling: 1500 feet AGL
Clouds: broken clouds at 1500 feet AGL
overcast cloud deck at 12000 feet AGL
Weather: SHRA  (rain showers)

METAR text: PTPN 190150Z 06015KT 8SM -SHRA BKN015CB OVC120 26/25 A2973 RMK CB ALQDS MOV SW
Conditions at: PTPN (POHNPEI AIRPORT , FM) observed 0150 UTC 19 February 2019
Temperature: 26.0°C (79°F)
Dewpoint: 25.0°C (77°F) [RH = 94%]
Pressure (altimeter): 29.73 inches Hg (1006.9 mb)
Winds: from the ENE (60 degrees) at 17 MPH (15 knots; 7.7 m/s)
Visibility: 8 miles (13 km)
Ceiling: 1500 feet AGL
Clouds: broken clouds at 1500 feet AGL
overcast cloud deck at 12000 feet AGL
Weather: -SHRA  (light rain showers)

METAR text: PTPN 190051Z 05020KT 4SM -SHRA BKN015CB OVC120 26/25 A2976 RMK CB ALQDS MOV W
Conditions at: PTPN (POHNPEI AIRPORT , FM) observed 0051 UTC 19 February 2019
Temperature: 26.0°C (79°F)
Dewpoint: 25.0°C (77°F) [RH = 94%]
Pressure (altimeter): 29.76 inches Hg (1007.9 mb)
Winds: from the NE (50 degrees) at 23 MPH (20 knots; 10.3 m/s)
Visibility: 4 miles ( 6 km)
Ceiling: 1500 feet AGL
Clouds: broken clouds at 1500 feet AGL
overcast cloud deck at 12000 feet AGL
Weather: -SHRA  (light rain showers)

METAR text: PTPN 182350Z 07020G30KT 4SM -RA BKN017TCU OVC120 26/25 A2977 RMK TCU ALQDS
Conditions at: PTPN (POHNPEI AIRPORT , FM) observed 2350 UTC 18 February 2019
Temperature: 26.0°C (79°F)
Dewpoint: 25.0°C (77°F) [RH = 94%]
Pressure (altimeter): 29.77 inches Hg (1008.2 mb)
Winds: from the ENE (70 degrees) at 23 MPH (20 knots; 10.3 m/s)
gusting to 34 MPH (30 knots; 15.4 m/s)
Visibility: 4 miles ( 6 km)
Ceiling: 1700 feet AGL
Clouds: broken clouds at 1700 feet AGL
overcast cloud deck at 12000 feet AGL
Weather: -RA  (light rain)

METAR text: PTPN 182250Z 04010KT 13SM -RA BKN017TCU OVC120 26/25 A2978 RMK TCU ALQDS
Conditions at: PTPN (POHNPEI AIRPORT , FM) observed 2250 UTC 18 February 2019
Temperature: 26.0°C (79°F)
Dewpoint: 25.0°C (77°F) [RH = 94%]
Pressure (altimeter): 29.78 inches Hg (1008.5 mb)
Winds: from the NE (40 degrees) at 12 MPH (10 knots; 5.1 m/s)
Visibility: 13 miles (21 km)
Ceiling: 1700 feet AGL
Clouds: broken clouds at 1700 feet AGL
overcast cloud deck at 12000 feet AGL
Weather: -RA  (light rain)

METAR text: PTPN 182157Z 10012KT 4SM -RA BKN017TCU OVC120 26/25 A2977 RMK TCU ALQDS FIRST
Conditions at: PTPN (POHNPEI AIRPORT , FM) observed 2157 UTC 18 February 2019
Temperature: 26.0°C (79°F)
Dewpoint: 25.0°C (77°F) [RH = 94%]
Pressure (altimeter): 29.77 inches Hg (1008.2 mb)
Winds: from the E (100 degrees) at 14 MPH (12 knots; 6.2 m/s)
Visibility: 4 miles ( 6 km)
Ceiling: 1700 feet AGL
Clouds: broken clouds at 1700 feet AGL
overcast cloud deck at 12000 feet AGL
Weather: -RA  (light rain)

METAR text: PTPN 180450Z 01010KT 15SM BKN017TCU OVC130 26/25 A2977 RMK TCU ALQDS LAST
Conditions at: PTPN (POHNPEI AIRPORT , FM) observed 0450 UTC 18 February 2019
Temperature: 26.0°C (79°F)
Dewpoint: 25.0°C (77°F) [RH = 94%]
Pressure (altimeter): 29.77 inches Hg (1008.2 mb)
Winds: from the N (10 degrees) at 12 MPH (10 knots; 5.1 m/s)
Visibility: 15 miles (24 km)
Ceiling: 1700 feet AGL
Clouds: broken clouds at 1700 feet AGL
overcast cloud deck at 13000 feet AGL
Weather: no significant weather observed at this time

METAR text: PTPN 180354Z 01011KT 12SM -RA BKN017TCU OVC130 26/25 A2977 RMK TCU ALQDS
Conditions at: PTPN (POHNPEI AIRPORT , FM) observed 0354 UTC 18 February 2019
Temperature: 26.0°C (79°F)
Dewpoint: 25.0°C (77°F) [RH = 94%]
Pressure (altimeter): 29.77 inches Hg (1008.2 mb)
Winds: from the N (10 degrees) at 13 MPH (11 knots; 5.7 m/s)
Visibility: 12 miles (19 km)
Ceiling: 1700 feet AGL
Clouds: broken clouds at 1700 feet AGL
overcast cloud deck at 13000 feet AGL
Weather: -RA  (light rain)

METAR text: PTPN 180250Z 04016KT 12SM -RA BKN017TCU OVC130 26/25 A2980 RMK TCU ALQDS
Conditions at: PTPN (POHNPEI AIRPORT , FM) observed 0250 UTC 18 February 2019
Temperature: 26.0°C (79°F)
Dewpoint: 25.0°C (77°F) [RH = 94%]
Pressure (altimeter): 29.80 inches Hg (1009.2 mb)
Winds: from the NE (40 degrees) at 18 MPH (16 knots; 8.2 m/s)
Visibility: 12 miles (19 km)
Ceiling: 1700 feet AGL
Clouds: broken clouds at 1700 feet AGL
overcast cloud deck at 13000 feet AGL
Weather: -RA  (light rain)

METAR text: PTPN 180150Z 05020KT 14SM -RA BKN017TCU OVC130 26/25 A2981 RMK TCU ALQDS
Conditions at: PTPN (POHNPEI AIRPORT , FM) observed 0150 UTC 18 February 2019
Temperature: 26.0°C (79°F)
Dewpoint: 25.0°C (77°F) [RH = 94%]
Pressure (altimeter): 29.81 inches Hg (1009.6 mb)
Winds: from the NE (50 degrees) at 23 MPH (20 knots; 10.3 m/s)
Visibility: 14 miles (23 km)
Ceiling: 1700 feet AGL
Clouds: broken clouds at 1700 feet AGL
overcast cloud deck at 13000 feet AGL
Weather: -RA  (light rain)

METAR text: PTPN 180050Z 06014KT 13SM -SHRA BKN017TCU OVC130 27/24 A2982 RMK TCU ALQDS
Conditions at: PTPN (POHNPEI AIRPORT , FM) observed 0050 UTC 18 February 2019
Temperature: 27.0°C (81°F)
Dewpoint: 24.0°C (75°F) [RH = 84%]
Pressure (altimeter): 29.82 inches Hg (1009.9 mb)
Winds: from the ENE (60 degrees) at 16 MPH (14 knots; 7.2 m/s)
Visibility: 13 miles (21 km)
Ceiling: 1700 feet AGL
Clouds: broken clouds at 1700 feet AGL
overcast cloud deck at 13000 feet AGL
Weather: -SHRA  (light rain showers)

METAR text: PTPN 172358Z 07010KT 13SM -SHRA BKN017TCU OVC130 27/26 A2983 RMK TCU ALQDS
Conditions at: PTPN (POHNPEI AIRPORT , FM) observed 2358 UTC 17 February 2019
Temperature: 27.0°C (81°F)
Dewpoint: 26.0°C (79°F) [RH = 94%]
Pressure (altimeter): 29.83 inches Hg (1010.2 mb)
Winds: from the ENE (70 degrees) at 12 MPH (10 knots; 5.1 m/s)
Visibility: 13 miles (21 km)
Ceiling: 1700 feet AGL
Clouds: broken clouds at 1700 feet AGL
overcast cloud deck at 13000 feet AGL
Weather: -SHRA  (light rain showers)

METAR text: PTPN 172250Z 07009KT 15SM BKN017TCU OVC130 28/25 A2983 RMK TCU ALQDS
Conditions at: PTPN (POHNPEI AIRPORT , FM) observed 2250 UTC 17 February 2019
Temperature: 28.0°C (82°F)
Dewpoint: 25.0°C (77°F) [RH = 84%]
Pressure (altimeter): 29.83 inches Hg (1010.2 mb)
Winds: from the ENE (70 degrees) at 10 MPH (9 knots; 4.6 m/s)
Visibility: 15 miles (24 km)
Ceiling: 1700 feet AGL
Clouds: broken clouds at 1700 feet AGL
overcast cloud deck at 13000 feet AGL
Weather: no significant weather observed at this time

METAR text: PTPN 172150Z 06010KT 15SM BKN017TCU OVC130 28/25 A2982 RMK TCU ALQDS
Conditions at: PTPN (POHNPEI AIRPORT , FM) observed 2150 UTC 17 February 2019
Temperature: 28.0°C (82°F)
Dewpoint: 25.0°C (77°F) [RH = 84%]
Pressure (altimeter): 29.82 inches Hg (1009.9 mb)
Winds: from the ENE (60 degrees) at 12 MPH (10 knots; 5.1 m/s)
Visibility: 15 miles (24 km)
Ceiling: 1700 feet AGL
Clouds: broken clouds at 1700 feet AGL
overcast cloud deck at 13000 feet AGL
Weather: no significant weather observed at this time

METAR text: PTPN 172110Z 05010KT 15SM BKN017TCU OVC130 28/25 A2982 RMK TCU ALQDS FIRST
Conditions at: PTPN (POHNPEI AIRPORT , FM) observed 2110 UTC 17 February 2019
Temperature: 28.0°C (82°F)
Dewpoint: 25.0°C (77°F) [RH = 84%]
Pressure (altimeter): 29.82 inches Hg (1009.9 mb)
Winds: from the NE (50 degrees) at 12 MPH (10 knots; 5.1 m/s)
Visibility: 15 miles (24 km)
Ceiling: 1700 feet AGL
Clouds: broken clouds at 1700 feet AGL
overcast cloud deck at 13000 feet AGL
Weather: no significant weather observed at this time

Forecast for: PTPN (POHNPEI AIRPORT , FM)
Text: PTPN 182322Z 1900/1924 06010KT P6SM -RA VCSH BKN017 OVC120
Forecast period: 0000 to 0300 UTC 19 February 2019
Forecast type: FROM: standard forecast or significant change
Winds: from the ENE (60 degrees) at 12 MPH (10 knots; 5.1 m/s)
Visibility: 6 or more miles 10+ km)
Ceiling: 1700 feet AGL
Clouds: broken clouds at 1700 feet AGL
overcast cloud deck at 12000 feet AGL
Weather: -RA VCSH  (light rain, showers in vicinity)
Text: TEMPO 1900/1903 11013G25KT 1SM +SHRA OVC017
Forecast period: 0000 to 0300 UTC 19 February 2019
Forecast type: TEMPORARY: The following changes expected for less than half the time period
Winds: from the ESE (110 degrees) at 15 MPH (13 knots; 6.7 m/s)
gusting to 29 MPH (25 knots; 12.9 m/s)
Visibility: 1.00 miles (1.61 km)
Ceiling: 1700 feet AGL
Clouds: overcast cloud deck at 1700 feet AGL
Weather: +SHRA  (heavy rain showers)
Text: FM190300 09015KT P6SM VCSH SCT017 BKN060 OVC100
Forecast period: 0300 UTC 19 February 2019 to 0000 UTC 20 February 2019
Forecast type: FROM: standard forecast or significant change
Winds: from the E (90 degrees) at 17 MPH (15 knots; 7.7 m/s)
Visibility: 6 or more miles 10+ km)
Ceiling: 6000 feet AGL
Clouds: scattered clouds at 1700 feet AGL
broken clouds at 6000 feet AGL
overcast cloud deck at 10000 feet AGL
Weather: VCSH  (showers in vicinity)